createdAt,value
2022-11-22T00:00:42.362Z,56.24
2022-11-22T00:03:09.824Z,56.20
2022-11-22T00:05:36.882Z,56.34
2022-11-22T00:08:04.357Z,56.18
2022-11-22T00:10:31.614Z,56.18
2022-11-22T00:12:58.824Z,56.10
2022-11-22T00:15:25.988Z,56.15
2022-11-22T00:17:52.892Z,56.09
2022-11-22T00:20:19.771Z,56.06
2022-11-22T00:22:47.194Z,56.05
2022-11-22T00:25:14.742Z,56.07
2022-11-22T00:27:42.107Z,55.89
2022-11-22T00:30:10.169Z,55.88
2022-11-22T00:32:37.378Z,55.81
2022-11-22T00:35:04.774Z,55.80
2022-11-22T00:37:32.015Z,55.75
2022-11-22T00:39:58.987Z,55.75
2022-11-22T00:42:26.015Z,55.76
2022-11-22T00:44:52.934Z,55.75
2022-11-22T00:47:19.905Z,55.67
2022-11-22T00:49:46.956Z,55.65
2022-11-22T00:52:14.090Z,55.69
2022-11-22T00:54:41.118Z,55.55
2022-11-22T00:57:08.222Z,55.54
2022-11-22T00:59:35.107Z,55.49
2022-11-22T01:02:02.107Z,55.60
2022-11-22T01:04:29.022Z,55.60
2022-11-22T01:06:55.990Z,55.60
2022-11-22T01:09:23.898Z,55.53
2022-11-22T01:11:51.500Z,55.64
2022-11-22T01:14:19.588Z,55.60
2022-11-22T01:16:47.659Z,55.49
2022-11-22T01:19:15.000Z,55.50
2022-11-22T01:21:42.318Z,55.53
2022-11-22T01:24:09.639Z,55.60
2022-11-22T01:26:36.748Z,55.60
2022-11-22T01:29:04.140Z,55.50
2022-11-22T01:31:31.424Z,55.77
2022-11-22T01:33:59.240Z,55.65
2022-11-22T01:36:27.546Z,55.61
2022-11-22T01:38:55.139Z,55.63
2022-11-22T01:41:22.453Z,55.61
2022-11-22T01:43:49.427Z,55.57
2022-11-22T01:46:31.685Z,55.60
2022-11-22T01:49:06.809Z,55.66
2022-11-22T01:51:40.111Z,55.54
2022-11-22T01:54:15.871Z,55.60
2022-11-22T01:56:46.896Z,55.53
2022-11-22T01:59:17.240Z,55.64
2022-11-22T02:01:44.514Z,55.50
2022-11-22T02:04:14.368Z,55.59
2022-11-22T02:06:51.085Z,55.42
2022-11-22T02:09:18.617Z,55.45
2022-11-22T02:11:52.054Z,55.40
2022-11-22T02:14:24.201Z,55.25
2022-11-22T02:16:51.246Z,55.44
2022-11-22T02:19:40.812Z,55.40
2022-11-22T02:22:37.517Z,55.34
2022-11-22T02:25:27.741Z,55.34
2022-11-22T02:27:54.704Z,55.43
2022-11-22T02:30:22.025Z,55.40
2022-11-22T02:32:48.942Z,55.52
2022-11-22T02:35:20.821Z,55.33
2022-11-22T02:37:49.863Z,55.27
2022-11-22T02:40:18.789Z,55.31
2022-11-22T02:42:51.953Z,55.24
2022-11-22T02:45:19.005Z,55.16
2022-11-22T02:47:46.072Z,55.24
2022-11-22T02:50:13.171Z,55.07
2022-11-22T02:52:40.164Z,55.18
2022-11-22T02:55:07.421Z,55.12
2022-11-22T02:57:34.388Z,55.17
2022-11-22T03:00:01.328Z,55.08
2022-11-22T03:02:28.353Z,55.03
2022-11-22T03:04:55.279Z,55.07
2022-11-22T03:07:22.204Z,55.03
2022-11-22T03:09:49.219Z,54.95
2022-11-22T03:12:16.150Z,54.97
2022-11-22T03:14:43.203Z,54.95
2022-11-22T03:17:10.115Z,54.94
2022-11-22T03:19:37.123Z,55.00
2022-11-22T03:22:04.103Z,54.76
2022-11-22T03:24:30.990Z,54.79
2022-11-22T03:26:57.862Z,54.76
2022-11-22T03:29:24.783Z,54.79
2022-11-22T03:31:51.626Z,54.62
2022-11-22T03:34:18.626Z,54.75
2022-11-22T03:36:45.928Z,54.72
2022-11-22T03:39:12.855Z,54.66
2022-11-22T03:41:39.720Z,54.55
2022-11-22T03:44:06.855Z,54.59
2022-11-22T03:46:33.754Z,54.56
2022-11-22T03:49:00.817Z,54.46
2022-11-22T03:51:28.083Z,54.58
2022-11-22T03:53:54.978Z,54.55
2022-11-22T03:56:23.055Z,54.38
2022-11-22T03:58:50.053Z,54.41
2022-11-22T04:01:17.127Z,54.44
2022-11-22T04:03:44.215Z,54.47
2022-11-22T04:06:11.163Z,54.29
2022-11-22T04:08:38.108Z,54.28
2022-11-22T04:11:05.075Z,54.28
2022-11-22T04:13:50.849Z,54.49
2022-11-22T04:16:17.806Z,54.34
2022-11-22T04:18:44.693Z,54.25
2022-11-22T04:21:30.112Z,54.39
2022-11-22T04:24:15.937Z,54.29
2022-11-22T04:26:42.867Z,54.35
2022-11-22T04:29:10.636Z,54.38
2022-11-22T04:31:56.795Z,54.31
2022-11-22T04:34:23.978Z,54.42
2022-11-22T04:36:51.429Z,54.30
2022-11-22T04:39:18.393Z,54.37
2022-11-22T04:41:45.355Z,54.29
2022-11-22T04:44:31.144Z,54.27
2022-11-22T04:46:58.087Z,54.24
2022-11-22T04:49:25.071Z,54.23
2022-11-22T04:52:10.958Z,54.22
2022-11-22T04:54:37.997Z,54.29
2022-11-22T04:57:04.944Z,54.18
2022-11-22T04:59:32.081Z,54.03
2022-11-22T05:01:59.348Z,54.08
2022-11-22T05:04:26.294Z,54.18
2022-11-22T05:06:53.349Z,54.22
2022-11-22T05:09:20.349Z,54.20
2022-11-22T05:11:47.331Z,54.15
2022-11-22T05:14:14.280Z,54.29
2022-11-22T05:16:41.425Z,54.34
2022-11-22T05:19:08.680Z,54.32
2022-11-22T05:21:38.375Z,54.45
2022-11-22T05:24:05.689Z,54.46
2022-11-22T05:26:36.887Z,54.49
2022-11-22T05:29:06.918Z,54.43
2022-11-22T05:31:36.267Z,54.48
2022-11-22T05:34:04.208Z,54.53
2022-11-22T05:36:33.298Z,54.50
2022-11-22T05:39:00.883Z,54.45
2022-11-22T05:41:27.982Z,54.58
2022-11-22T05:43:58.791Z,54.44
2022-11-22T05:46:28.707Z,54.49
2022-11-22T05:48:57.552Z,54.45
2022-11-22T05:51:33.614Z,54.50
2022-11-22T05:54:02.549Z,54.51
2022-11-22T05:56:29.605Z,54.47
2022-11-22T05:58:56.665Z,54.44
2022-11-22T06:01:24.960Z,54.40
2022-11-22T06:03:52.553Z,54.38
2022-11-22T06:06:20.146Z,54.37
2022-11-22T06:08:48.517Z,54.40
2022-11-22T06:11:18.701Z,54.29
2022-11-22T06:13:47.878Z,54.23
2022-11-22T06:16:15.638Z,54.42
2022-11-22T06:18:43.193Z,54.34
2022-11-22T06:21:16.179Z,54.23
2022-11-22T06:23:43.296Z,54.13
2022-11-22T06:26:13.418Z,54.17
2022-11-22T06:28:41.424Z,54.17
2022-11-22T06:31:12.778Z,54.14
2022-11-22T06:33:40.942Z,54.27
2022-11-22T06:36:28.088Z,54.21
2022-11-22T06:38:55.619Z,54.22
2022-11-22T06:41:28.316Z,54.08
2022-11-22T06:43:58.786Z,54.27
2022-11-22T06:46:28.006Z,54.30
2022-11-22T06:48:55.072Z,54.22
2022-11-22T06:51:28.113Z,54.26
2022-11-22T06:53:56.447Z,54.18
2022-11-22T06:56:40.033Z,54.21
2022-11-22T06:59:07.921Z,54.42
2022-11-22T07:01:36.480Z,54.37
2022-11-22T07:04:04.496Z,54.50
2022-11-22T07:06:38.708Z,54.50
2022-11-22T07:09:10.747Z,54.46
2022-11-22T07:11:38.531Z,54.45
2022-11-22T07:14:08.734Z,54.47
2022-11-22T07:16:37.913Z,54.45
2022-11-22T07:19:05.598Z,54.63
2022-11-22T07:21:32.885Z,54.62
2022-11-22T07:23:59.956Z,54.58
2022-11-22T07:26:28.825Z,54.59
2022-11-22T07:28:56.383Z,54.54
2022-11-22T07:31:23.521Z,54.63
2022-11-22T07:33:50.442Z,54.92
2022-11-22T07:36:22.643Z,55.32
2022-11-22T07:38:50.770Z,55.27
2022-11-22T07:41:19.047Z,55.43
2022-11-22T07:43:47.125Z,55.57
2022-11-22T07:46:22.807Z,55.77
2022-11-22T07:48:50.638Z,55.77
2022-11-22T07:51:17.773Z,55.90
2022-11-22T07:53:44.981Z,56.00
2022-11-22T07:56:12.331Z,55.97
2022-11-22T07:58:39.218Z,55.97
2022-11-22T08:01:07.456Z,56.18
2022-11-22T08:03:34.759Z,56.03
2022-11-22T08:06:03.292Z,56.13
2022-11-22T08:08:30.387Z,56.27
2022-11-22T08:10:57.546Z,56.28
2022-11-22T08:13:24.801Z,56.25
2022-11-22T08:15:54.725Z,56.39
2022-11-22T08:18:22.898Z,56.49
2022-11-22T08:20:49.860Z,56.53
2022-11-22T08:23:16.815Z,56.54
2022-11-22T08:25:43.775Z,56.41
2022-11-22T08:28:11.426Z,56.64
2022-11-22T08:30:38.368Z,56.73
2022-11-22T08:33:05.329Z,56.73
2022-11-22T08:35:33.697Z,56.81
2022-11-22T08:38:00.747Z,56.86
2022-11-22T08:40:27.838Z,56.80
2022-11-22T08:42:56.180Z,56.81
2022-11-22T08:45:23.326Z,56.85
2022-11-22T08:47:50.482Z,56.68
2022-11-22T08:50:18.751Z,56.72
2022-11-22T08:52:45.837Z,56.83
2022-11-22T08:55:12.752Z,56.78
2022-11-22T08:57:39.756Z,56.94
2022-11-22T09:00:07.533Z,56.94
2022-11-22T09:02:34.638Z,57.01
2022-11-22T09:05:01.584Z,57.00
2022-11-22T09:10:17.498Z,57.08
2022-11-22T09:12:46.238Z,57.21
2022-11-22T09:15:13.783Z,57.19
2022-11-22T09:17:40.827Z,57.24
2022-11-22T09:20:08.767Z,57.20
2022-11-22T09:22:35.848Z,57.19
2022-11-22T09:25:04.325Z,57.28
2022-11-22T09:27:32.814Z,57.44
2022-11-22T09:29:59.755Z,57.39
2022-11-22T09:32:32.232Z,57.44
2022-11-22T09:35:00.661Z,57.40
2022-11-22T09:37:27.657Z,57.43
2022-11-22T09:39:54.791Z,57.61
2022-11-22T09:42:56.090Z,57.80
2022-11-22T09:45:31.967Z,58.05
2022-11-22T09:48:09.868Z,57.87
2022-11-22T09:50:57.979Z,57.96
2022-11-22T09:53:55.621Z,57.77
2022-11-22T09:56:26.783Z,57.80
2022-11-22T09:59:12.953Z,57.83
2022-11-22T10:01:46.068Z,57.69
2022-11-22T10:04:18.142Z,57.68
2022-11-22T10:06:53.819Z,57.72
2022-11-22T10:09:26.465Z,57.66
2022-11-22T10:12:19.416Z,57.59
2022-11-22T10:15:04.543Z,57.74
2022-11-22T10:17:54.254Z,57.68
2022-11-22T10:20:35.747Z,57.68
2022-11-22T10:23:03.666Z,57.77
2022-11-22T10:25:44.570Z,57.80
2022-11-22T10:28:17.712Z,57.86
2022-11-22T10:31:21.332Z,57.87
2022-11-22T10:34:22.062Z,57.84
2022-11-22T10:37:02.096Z,57.83
2022-11-22T10:39:43.742Z,57.94
2022-11-22T10:42:19.892Z,57.90
2022-11-22T10:45:11.634Z,57.93
2022-11-22T10:47:41.200Z,57.86
2022-11-22T10:50:36.717Z,57.98
2022-11-22T10:53:29.618Z,57.91
2022-11-22T10:56:01.997Z,58.01
2022-11-22T10:58:50.459Z,58.12
2022-11-22T11:01:35.762Z,58.11
2022-11-22T11:04:04.462Z,58.14
2022-11-22T11:06:57.081Z,58.18
2022-11-22T11:12:59.605Z,58.27
2022-11-22T11:15:55.728Z,58.29
2022-11-22T11:18:29.563Z,58.51
2022-11-22T11:20:56.469Z,58.39
2022-11-22T11:23:24.291Z,58.64
2022-11-22T11:25:52.650Z,58.38
2022-11-22T11:28:26.637Z,58.47
2022-11-22T11:31:07.812Z,58.55
2022-11-22T11:33:38.423Z,58.46
2022-11-22T11:36:22.282Z,58.52
2022-11-22T11:38:57.863Z,58.59
2022-11-22T11:41:32.737Z,58.73
2022-11-22T11:44:05.805Z,58.65
2022-11-22T11:46:42.164Z,58.64
2022-11-22T11:49:17.569Z,58.67
2022-11-22T11:51:46.685Z,58.56
2022-11-22T11:54:23.191Z,58.68
2022-11-22T11:56:57.750Z,58.69
2022-11-22T11:59:44.396Z,58.64
2022-11-22T12:02:15.561Z,58.71
2022-11-22T12:04:59.604Z,58.69
2022-11-22T12:07:28.843Z,58.76
2022-11-22T12:09:56.485Z,58.78
2022-11-22T12:12:45.372Z,58.78
2022-11-22T12:15:46.502Z,58.88
2022-11-22T12:18:26.038Z,58.97
2022-11-22T12:21:04.353Z,59.15
2022-11-22T12:24:19.562Z,59.04
2022-11-22T12:26:46.162Z,59.44
2022-11-22T12:29:15.154Z,59.49
2022-11-22T12:31:54.255Z,59.67
2022-11-22T12:34:28.925Z,59.94
2022-11-22T12:37:10.876Z,60.29
2022-11-22T12:39:38.622Z,60.58
2022-11-22T12:42:23.197Z,60.73
2022-11-22T12:45:01.921Z,60.65
2022-11-22T12:47:35.706Z,60.66
2022-11-22T12:50:49.239Z,60.67
2022-11-22T12:53:23.800Z,60.60
2022-11-22T12:56:24.436Z,60.40
2022-11-22T12:58:56.422Z,60.53
2022-11-22T13:01:51.553Z,60.86
2022-11-22T13:04:40.876Z,61.32
2022-11-22T13:07:19.125Z,61.45
2022-11-22T13:09:55.554Z,61.17
2022-11-22T13:12:34.518Z,61.11
2022-11-22T13:15:02.310Z,61.13
2022-11-22T13:17:36.711Z,60.97
2022-11-22T13:20:09.378Z,60.78
2022-11-22T13:22:52.615Z,60.85
2022-11-22T13:25:22.415Z,60.84
2022-11-22T13:27:52.189Z,60.73
2022-11-22T13:30:24.764Z,60.74
2022-11-22T13:32:54.937Z,60.72
2022-11-22T13:35:35.390Z,60.67
2022-11-22T13:38:09.831Z,60.73
2022-11-22T13:40:45.351Z,60.81
2022-11-22T13:43:21.393Z,60.76
2022-11-22T13:45:51.839Z,60.57
2022-11-22T13:48:40.493Z,60.51
2022-11-22T13:51:12.264Z,60.26
2022-11-22T13:53:42.799Z,60.23
2022-11-22T13:56:15.874Z,60.21
2022-11-22T13:58:51.319Z,60.06
2022-11-22T14:01:34.072Z,60.00
2022-11-22T14:04:16.634Z,60.00
2022-11-22T14:06:49.135Z,59.97
2022-11-22T14:09:37.960Z,59.99
2022-11-22T14:12:10.789Z,60.02
2022-11-22T14:14:49.828Z,60.11
2022-11-22T14:17:41.351Z,60.15
2022-11-22T14:20:27.281Z,60.11
2022-11-22T14:23:01.563Z,60.16
2022-11-22T14:25:47.244Z,60.17
2022-11-22T14:28:29.243Z,60.10
2022-11-22T14:30:57.444Z,59.90
2022-11-22T14:33:27.224Z,60.07
2022-11-22T14:36:06.208Z,59.96
2022-11-22T14:38:34.126Z,59.88
2022-11-22T14:41:26.447Z,59.78
2022-11-22T14:43:59.935Z,59.83
2022-11-22T14:46:52.385Z,59.78
2022-11-22T14:49:44.901Z,59.82
2022-11-22T14:52:32.942Z,59.81
2022-11-22T14:55:02.811Z,59.94
2022-11-22T14:57:32.884Z,59.86
2022-11-22T15:00:19.300Z,59.91
2022-11-22T15:03:23.121Z,59.97
2022-11-22T15:09:20.093Z,60.00
2022-11-22T15:09:51.018Z,60.18
2022-11-22T15:12:45.617Z,60.12
2022-11-22T15:57:33.683Z,63.51
2022-11-22T16:00:01.974Z,63.28
2022-11-22T16:02:38.387Z,63.29
2022-11-22T16:06:04.400Z,63.18
2022-11-22T16:07:57.490Z,63.20
2022-11-22T16:10:26.563Z,63.12
2022-11-22T16:12:54.402Z,62.85
2022-11-22T16:15:27.183Z,62.69
2022-11-22T16:18:27.677Z,62.62
2022-11-22T16:21:20.983Z,62.57
2022-11-22T16:24:07.126Z,62.58
2022-11-22T16:26:34.439Z,62.49
2022-11-22T16:29:35.660Z,62.58
2022-11-22T16:32:11.522Z,62.41
2022-11-22T16:34:39.397Z,62.39
2022-11-22T16:37:34.712Z,62.23
2022-11-22T16:40:06.299Z,62.17
2022-11-22T16:42:33.809Z,62.01
2022-11-22T16:45:04.077Z,61.91
2022-11-22T16:47:31.580Z,61.77
2022-11-22T16:49:58.439Z,61.71
2022-11-22T16:52:25.711Z,61.81
2022-11-22T16:54:52.607Z,61.74
2022-11-22T16:57:19.503Z,61.56
2022-11-22T16:59:46.518Z,61.52
2022-11-22T17:02:16.960Z,61.51
2022-11-22T17:04:48.410Z,61.51
2022-11-22T17:07:16.555Z,61.34
2022-11-22T17:09:43.739Z,61.28
2022-11-22T17:12:19.687Z,61.37
2022-11-22T17:14:48.780Z,61.23
2022-11-22T17:17:15.927Z,61.32
2022-11-22T17:19:53.057Z,61.29
2022-11-22T17:22:20.527Z,61.24
2022-11-22T17:24:47.414Z,61.30
2022-11-22T17:27:15.076Z,61.49
2022-11-22T17:29:50.152Z,61.49
2022-11-22T17:32:17.848Z,61.36
2022-11-22T17:34:44.785Z,61.37
2022-11-22T17:37:13.094Z,61.35
2022-11-22T17:39:41.096Z,61.12
2022-11-22T17:42:08.386Z,61.12
2022-11-22T17:44:35.409Z,61.02
2022-11-22T17:47:02.418Z,60.98
2022-11-22T17:49:29.668Z,60.77
2022-11-22T17:51:57.006Z,61.04
2022-11-22T17:54:24.005Z,61.17
2022-11-22T17:56:51.132Z,61.40
2022-11-22T17:59:18.063Z,61.58
2022-11-22T18:01:45.116Z,61.58
2022-11-22T18:04:12.159Z,61.72
2022-11-22T18:06:39.217Z,61.82
2022-11-22T18:09:06.266Z,61.81
2022-11-22T18:11:33.284Z,61.70
2022-11-22T18:14:01.706Z,61.83
2022-11-22T18:16:29.150Z,61.85
2022-11-22T18:18:57.760Z,61.66
2022-11-22T18:21:26.183Z,61.79
2022-11-22T18:23:53.284Z,61.57
2022-11-22T18:31:55.493Z,61.76
2022-11-22T18:34:23.581Z,61.68
2022-11-22T18:37:06.225Z,61.67
2022-11-22T18:39:36.514Z,61.84
2022-11-22T18:42:10.390Z,61.90
2022-11-22T18:44:37.358Z,61.87
2022-11-22T18:47:05.094Z,61.78
2022-11-22T18:49:32.831Z,61.92
2022-11-22T18:52:00.283Z,61.84
2022-11-22T18:54:27.232Z,61.71
2022-11-22T18:56:54.273Z,61.56
2022-11-22T18:59:21.317Z,61.52
2022-11-22T19:01:48.776Z,61.40
2022-11-22T19:04:16.364Z,61.25
2022-11-22T19:06:44.875Z,61.41
2022-11-22T19:09:11.906Z,61.32
2022-11-22T19:11:38.979Z,61.20
2022-11-22T19:14:06.383Z,61.01
2022-11-22T19:16:33.597Z,61.13
2022-11-22T19:19:00.599Z,60.88
2022-11-22T19:21:29.288Z,60.89
2022-11-22T19:23:57.545Z,60.99
2022-11-22T19:26:26.681Z,60.73
2022-11-22T19:28:56.337Z,60.88
2022-11-22T19:31:29.549Z,61.05
2022-11-22T19:33:57.433Z,60.87
2022-11-22T19:36:32.826Z,60.77
2022-11-22T19:39:02.657Z,60.80
2022-11-22T19:41:31.127Z,60.85
2022-11-22T19:43:58.390Z,60.93
2022-11-22T19:46:26.638Z,60.81
2022-11-22T19:48:55.675Z,60.80
2022-11-22T19:51:23.453Z,60.80
2022-11-22T19:53:54.750Z,60.83
2022-11-22T19:56:21.722Z,60.85
2022-11-22T19:58:54.178Z,60.87
2022-11-22T20:01:23.801Z,60.87
2022-11-22T20:03:52.992Z,60.87
2022-11-22T20:06:20.036Z,60.92
2022-11-22T20:08:47.258Z,60.80
2022-11-22T20:11:17.470Z,60.80
2022-11-22T20:13:50.378Z,60.80
2022-11-22T20:16:23.623Z,60.70
2022-11-22T20:18:57.969Z,60.62
2022-11-22T20:21:26.846Z,60.59
2022-11-22T20:23:54.163Z,60.57
2022-11-22T20:26:22.109Z,60.48
2022-11-22T20:29:05.397Z,60.56
2022-11-22T20:31:34.416Z,60.69
2022-11-22T20:34:02.199Z,60.55
2022-11-22T20:36:31.447Z,60.64
2022-11-22T20:38:59.166Z,60.67
2022-11-22T20:41:28.455Z,60.62
2022-11-22T20:43:55.975Z,60.70
2022-11-22T20:46:27.973Z,60.55
2022-11-22T20:48:56.566Z,60.70
2022-11-22T20:51:28.174Z,60.75
2022-11-22T20:53:56.950Z,60.87
2022-11-22T20:56:24.800Z,60.71
2022-11-22T20:58:52.609Z,60.82
2022-11-22T21:01:25.319Z,60.75
2022-11-22T21:03:53.461Z,61.04
2022-11-22T21:06:22.998Z,61.13
2022-11-22T21:08:50.279Z,61.29
2022-11-22T21:11:21.094Z,61.21
2022-11-22T21:13:49.490Z,61.03
2022-11-22T21:16:24.576Z,61.05
2022-11-22T21:18:57.485Z,60.93
2022-11-22T21:21:25.615Z,60.90
2022-11-22T21:23:54.460Z,60.90
2022-11-22T21:26:22.872Z,60.74
2022-11-22T21:28:50.355Z,60.88
2022-11-22T21:31:17.660Z,60.78
2022-11-22T21:33:45.945Z,60.73
2022-11-22T21:36:13.139Z,60.81
2022-11-22T21:38:40.149Z,60.72
2022-11-22T21:44:07.304Z,60.63
2022-11-22T21:46:36.274Z,60.43
2022-11-22T21:49:04.807Z,60.42
2022-11-22T21:51:35.037Z,60.37
2022-11-22T21:54:02.752Z,60.30
2022-11-22T21:56:35.162Z,60.31
2022-11-22T21:59:04.841Z,60.33
2022-11-22T22:01:33.786Z,60.26
2022-11-22T22:04:06.825Z,60.32
2022-11-22T22:06:34.158Z,60.37
2022-11-22T22:09:04.638Z,60.43
2022-11-22T22:11:33.857Z,60.46
2022-11-22T22:14:01.518Z,60.42
2022-11-22T22:16:33.450Z,60.52
2022-11-22T22:19:09.583Z,60.50
2022-11-22T22:21:43.888Z,60.46
2022-11-22T22:24:13.926Z,60.44
2022-11-22T22:26:43.773Z,60.69
2022-11-22T22:29:13.715Z,60.59
2022-11-22T22:31:42.035Z,60.56
2022-11-22T22:34:09.350Z,60.29
2022-11-22T22:36:37.607Z,60.36
2022-11-22T22:39:08.923Z,60.34
2022-11-22T22:41:36.028Z,60.23
2022-11-22T22:44:03.127Z,60.23
2022-11-22T22:46:30.164Z,60.10
2022-11-22T22:48:57.299Z,60.06
2022-11-22T22:51:32.719Z,60.27
2022-11-22T22:54:01.283Z,60.14
2022-11-22T22:56:30.091Z,60.01
2022-11-22T22:58:58.556Z,60.12
2022-11-22T23:01:29.594Z,60.12
2022-11-22T23:03:58.973Z,60.21
2022-11-22T23:06:28.674Z,60.21
2022-11-22T23:08:56.421Z,60.26
2022-11-22T23:11:46.202Z,60.35
2022-11-22T23:14:14.927Z,60.38
2022-11-22T23:16:42.006Z,60.29
2022-11-22T23:19:09.634Z,60.40
2022-11-22T23:21:36.748Z,60.39
2022-11-22T23:24:04.123Z,60.43
2022-11-22T23:26:31.702Z,60.32
2022-11-22T23:28:59.489Z,60.39
2022-11-22T23:31:27.182Z,60.40
2022-11-22T23:33:54.094Z,60.42
2022-11-22T23:36:23.127Z,60.52
2022-11-22T23:38:50.039Z,60.32
2022-11-22T23:41:22.406Z,60.45
2022-11-22T23:43:54.262Z,60.43
2022-11-22T23:46:22.347Z,60.40
2022-11-22T23:48:53.962Z,60.34
2022-11-22T23:51:21.913Z,60.25
2022-11-22T23:53:49.049Z,60.23
2022-11-22T23:56:21.851Z,60.24
2022-11-22T23:58:50.132Z,60.14
